createdAt,value
2024-01-11T00:01:14.601Z,5.80
2024-01-11T00:03:44.004Z,13.55
2024-01-11T00:06:14.126Z,10.40
2024-01-11T00:08:43.572Z,11.05
2024-01-11T00:11:15.238Z,6.93
2024-01-11T00:13:47.679Z,12.05
2024-01-11T00:16:17.235Z,11.00
2024-01-11T00:18:46.678Z,8.57
2024-01-11T00:21:16.349Z,8.23
2024-01-11T00:23:45.649Z,10.30
2024-01-11T00:26:15.313Z,9.15
2024-01-11T00:28:44.546Z,7.22
2024-01-11T00:31:16.000Z,7.03
2024-01-11T00:33:45.431Z,6.60
2024-01-11T00:36:21.012Z,4.95
2024-01-11T00:38:50.245Z,6.20
2024-01-11T00:41:20.043Z,10.05
2024-01-11T00:43:49.782Z,8.02
2024-01-11T00:46:20.725Z,12.93
2024-01-11T00:48:53.131Z,5.50
2024-01-11T00:53:54.633Z,4.70
2024-01-11T00:56:24.265Z,9.75
2024-01-11T00:58:53.976Z,6.72
2024-01-11T01:01:24.899Z,6.53
2024-01-11T01:03:54.656Z,5.43
2024-01-11T01:06:24.342Z,9.57
2024-01-11T01:08:53.571Z,5.20
2024-01-11T01:11:23.461Z,6.50
2024-01-11T01:13:53.176Z,6.80
2024-01-11T01:16:22.258Z,5.35
2024-01-11T01:18:53.516Z,7.40
2024-01-11T01:21:22.820Z,7.93
2024-01-11T01:23:52.186Z,7.32
2024-01-11T01:26:21.840Z,5.30
2024-01-11T01:28:51.318Z,5.18
2024-01-11T01:31:20.630Z,4.15
2024-01-11T01:33:50.531Z,4.63
2024-01-11T01:36:24.040Z,7.22
2024-01-11T01:38:53.405Z,5.70
2024-01-11T01:41:23.084Z,5.50
2024-01-11T01:43:52.702Z,7.57
2024-01-11T01:46:25.938Z,1.85
2024-01-11T01:48:57.814Z,4.85
2024-01-11T01:51:31.603Z,4.90
2024-01-11T01:54:02.432Z,10.20
2024-01-11T01:56:32.850Z,2.22
2024-01-11T01:59:04.859Z,6.75
2024-01-11T02:01:35.337Z,4.75
2024-01-11T02:04:05.496Z,4.45
2024-01-11T02:06:37.876Z,2.65
2024-01-11T02:09:09.578Z,8.75
2024-01-11T02:11:40.544Z,4.05
2024-01-11T02:14:10.282Z,0.60
2024-01-11T02:16:39.625Z,2.70
2024-01-11T02:19:15.684Z,2.13
2024-01-11T02:21:48.854Z,4.13
2024-01-11T02:24:20.049Z,3.65
2024-01-11T02:27:02.100Z,2.67
2024-01-11T02:29:32.313Z,3.03
2024-01-11T02:32:04.182Z,0.75
2024-01-11T02:34:33.716Z,0.68
2024-01-11T02:37:03.095Z,2.40
2024-01-11T02:39:34.091Z,2.78
2024-01-11T02:42:03.902Z,1.50
2024-01-11T02:44:33.449Z,0.30
2024-01-11T02:47:03.216Z,3.17
2024-01-11T02:49:32.618Z,3.28
2024-01-11T02:52:02.298Z,2.45
2024-01-11T02:54:31.640Z,2.67
2024-01-11T02:57:02.674Z,1.73
2024-01-11T02:59:32.589Z,7.35
2024-01-11T03:02:02.006Z,6.30
2024-01-11T03:04:31.424Z,3.20
2024-01-11T03:07:01.326Z,1.75
2024-01-11T03:09:30.725Z,2.25
2024-01-11T03:12:02.002Z,3.35
2024-01-11T03:14:31.361Z,7.82
2024-01-11T03:17:00.747Z,4.47
2024-01-11T03:19:30.288Z,4.28
2024-01-11T03:21:59.779Z,2.33
2024-01-11T03:24:37.729Z,2.67
2024-01-11T03:27:09.553Z,5.20
2024-01-11T03:29:38.843Z,8.43
2024-01-11T03:32:08.473Z,4.45
2024-01-11T03:34:38.105Z,0.80
2024-01-11T03:37:07.680Z,1.40
2024-01-11T03:39:37.434Z,10.57
2024-01-11T03:42:09.406Z,10.63
2024-01-11T03:44:39.267Z,1.67
2024-01-11T03:47:09.359Z,3.75
2024-01-11T03:49:39.116Z,2.33
2024-01-11T03:52:09.088Z,3.22
2024-01-11T03:54:38.664Z,5.38
2024-01-11T03:57:10.163Z,8.13
2024-01-11T03:59:39.607Z,1.98
2024-01-11T04:02:09.177Z,5.65
2024-01-11T04:04:38.649Z,6.03
2024-01-11T04:07:07.965Z,3.00
2024-01-11T04:09:39.979Z,8.77
2024-01-11T04:12:11.701Z,6.00
2024-01-11T04:14:41.907Z,1.80
2024-01-11T04:17:11.331Z,0.93
2024-01-11T04:19:42.443Z,2.63
2024-01-11T04:22:11.655Z,3.58
2024-01-11T04:24:40.814Z,2.58
2024-01-11T04:27:11.566Z,1.73
2024-01-11T04:29:41.042Z,3.35
2024-01-11T04:32:10.606Z,3.45
2024-01-11T04:34:40.667Z,3.63
2024-01-11T04:37:10.069Z,8.85
2024-01-11T04:39:39.384Z,8.18
2024-01-11T04:42:08.662Z,1.95
2024-01-11T04:44:39.936Z,18.75
2024-01-11T04:47:09.794Z,0.70
2024-01-11T04:49:39.300Z,7.75
2024-01-11T04:52:11.753Z,4.05
2024-01-11T04:54:41.295Z,6.95
2024-01-11T04:57:10.476Z,6.00
2024-01-11T04:59:42.299Z,2.13
2024-01-11T05:02:12.320Z,4.70
2024-01-11T05:04:42.130Z,7.20
2024-01-11T05:07:11.386Z,3.90
2024-01-11T05:09:41.597Z,2.88
2024-01-11T05:12:11.472Z,4.25
2024-01-11T05:14:42.540Z,11.23
2024-01-11T05:17:11.966Z,6.32
2024-01-11T05:19:41.321Z,7.78
2024-01-11T05:22:10.934Z,2.38
2024-01-11T05:24:40.432Z,6.57
2024-01-11T05:27:10.301Z,1.98
2024-01-11T05:29:39.678Z,8.52
2024-01-11T05:32:10.803Z,8.63
2024-01-11T05:34:40.488Z,1.77
2024-01-11T05:37:09.922Z,5.68
2024-01-11T05:39:39.258Z,1.50
2024-01-11T05:42:09.054Z,6.55
2024-01-11T05:44:38.673Z,5.22
2024-01-11T05:47:09.726Z,3.90
2024-01-11T05:49:38.983Z,2.35
2024-01-11T05:52:08.416Z,6.38
2024-01-11T05:54:38.277Z,16.30
2024-01-11T05:57:08.805Z,1.85
2024-01-11T05:59:38.357Z,9.52
2024-01-11T06:02:08.145Z,5.45
2024-01-11T06:04:38.908Z,7.85
2024-01-11T06:07:08.687Z,4.57
2024-01-11T06:09:38.456Z,6.95
2024-01-11T06:12:08.742Z,4.13
2024-01-11T06:14:38.284Z,2.42
2024-01-11T06:17:07.563Z,2.63
2024-01-11T06:19:36.995Z,7.40
2024-01-11T06:22:09.383Z,6.28
2024-01-11T06:24:38.722Z,0.73
2024-01-11T06:27:07.800Z,5.53
2024-01-11T06:29:37.110Z,8.07
2024-01-11T06:32:07.022Z,3.85
2024-01-11T06:34:38.085Z,13.48
2024-01-11T06:37:09.216Z,16.92
2024-01-11T06:39:38.413Z,19.75
2024-01-11T06:42:07.754Z,30.02
2024-01-11T06:44:36.887Z,14.43
2024-01-11T06:47:07.287Z,8.02
2024-01-11T06:49:37.115Z,13.75
2024-01-11T06:52:06.943Z,6.05
2024-01-11T06:54:39.086Z,13.57
2024-01-11T06:57:08.189Z,10.95
2024-01-11T06:59:37.653Z,7.55
2024-01-11T07:02:07.212Z,5.40
2024-01-11T07:04:36.728Z,5.22
2024-01-11T07:07:06.955Z,8.50
2024-01-11T07:09:38.547Z,13.75
2024-01-11T07:12:09.151Z,3.70
2024-01-11T07:14:38.822Z,7.47
2024-01-11T07:17:08.257Z,1.15
2024-01-11T07:19:38.493Z,6.80
2024-01-11T07:22:07.846Z,3.53
2024-01-11T07:24:39.876Z,2.85
2024-01-11T07:27:09.606Z,1.75
2024-01-11T07:29:38.900Z,2.72
2024-01-11T07:32:08.959Z,3.03
2024-01-11T07:34:39.432Z,1.23
2024-01-11T07:37:09.119Z,2.78
2024-01-11T07:39:40.049Z,2.60
2024-01-11T07:42:09.570Z,2.53
2024-01-11T07:44:38.905Z,3.15
2024-01-11T07:47:08.648Z,4.07
2024-01-11T07:49:38.539Z,4.35
2024-01-11T07:52:08.008Z,2.58
2024-01-11T07:54:37.224Z,1.08
2024-01-11T07:57:08.468Z,5.40
2024-01-11T07:59:38.720Z,1.45
2024-01-11T08:02:08.939Z,1.20
2024-01-11T08:04:40.370Z,1.52
2024-01-11T08:07:09.766Z,1.35
2024-01-11T08:09:46.538Z,3.53
2024-01-11T08:12:18.540Z,2.80
2024-01-11T08:14:49.408Z,1.42
2024-01-11T08:17:18.789Z,2.78
2024-01-11T08:19:48.089Z,1.65
2024-01-11T08:22:19.244Z,0.52
2024-01-11T08:24:48.946Z,2.15
2024-01-11T08:27:19.931Z,0.75
2024-01-11T08:29:49.604Z,2.00
2024-01-11T08:32:28.423Z,2.30
2024-01-11T08:35:01.369Z,2.05
2024-01-11T08:37:30.864Z,2.13
2024-01-11T08:40:00.233Z,0.75
2024-01-11T08:42:31.689Z,0.40
2024-01-11T08:45:05.326Z,0.85
2024-01-11T08:47:35.260Z,1.30
2024-01-11T08:50:07.585Z,1.73
2024-01-11T08:52:37.269Z,1.55
2024-01-11T08:55:07.210Z,1.45
2024-01-11T08:57:38.410Z,4.43
2024-01-11T09:00:08.900Z,3.25
2024-01-11T09:02:38.368Z,2.45
2024-01-11T09:05:09.456Z,3.13
2024-01-11T09:07:39.672Z,1.52
2024-01-11T09:10:12.779Z,2.40
2024-01-11T09:12:43.977Z,3.33
2024-01-11T09:15:13.950Z,1.63
2024-01-11T09:17:43.286Z,3.15
2024-01-11T09:20:15.821Z,2.10
2024-01-11T09:22:45.234Z,2.63
2024-01-11T09:25:14.488Z,2.58
2024-01-11T09:27:45.849Z,1.92
2024-01-11T09:30:15.567Z,2.33
2024-01-11T09:32:45.183Z,1.45
2024-01-11T09:35:16.507Z,2.05
2024-01-11T09:37:47.981Z,1.38
2024-01-11T09:40:18.469Z,1.85
2024-01-11T09:42:50.521Z,2.47
2024-01-11T09:45:20.668Z,0.70
2024-01-11T09:47:52.627Z,1.38
2024-01-11T09:50:23.605Z,0.98
2024-01-11T09:52:53.601Z,0.20
2024-01-11T09:55:22.736Z,0.77
2024-01-11T09:57:59.005Z,0.73
2024-01-11T10:00:29.458Z,1.13
2024-01-11T10:02:59.099Z,0.77
2024-01-11T10:05:29.940Z,1.63
2024-01-11T10:07:59.282Z,0.65
2024-01-11T10:10:29.707Z,0.98
2024-01-11T10:13:00.822Z,1.25
2024-01-11T10:15:30.887Z,0.30
2024-01-11T10:18:01.135Z,1.75
2024-01-11T10:20:31.747Z,1.48
2024-01-11T10:23:02.636Z,1.30
2024-01-11T10:25:32.400Z,0.43
2024-01-11T10:28:03.395Z,1.38
2024-01-11T10:30:34.363Z,0.32
2024-01-11T10:33:04.028Z,1.17
2024-01-11T10:35:33.316Z,1.00
2024-01-11T10:38:05.897Z,0.93
2024-01-11T10:40:35.793Z,1.05
2024-01-11T10:43:12.777Z,0.47
2024-01-11T10:45:42.644Z,1.00
2024-01-11T10:48:16.781Z,0.40
2024-01-11T10:50:47.650Z,0.50
2024-01-11T10:53:30.856Z,1.40
2024-01-11T10:56:02.221Z,0.55
2024-01-11T10:58:35.796Z,0.95
2024-01-11T11:01:07.066Z,2.20
2024-01-11T11:03:38.508Z,4.68
2024-01-11T11:06:09.066Z,5.13
2024-01-11T11:08:39.706Z,1.23
2024-01-11T11:11:10.088Z,0.93
2024-01-11T11:13:43.022Z,2.47
2024-01-11T11:16:12.323Z,0.77
2024-01-11T11:18:41.742Z,0.68
2024-01-11T11:21:13.193Z,1.08
2024-01-11T11:23:42.966Z,0.80
2024-01-11T11:26:17.868Z,0.60
2024-01-11T11:28:50.901Z,1.77
2024-01-11T11:31:38.622Z,1.08
2024-01-11T11:34:08.173Z,1.30
2024-01-11T11:36:37.568Z,1.35
2024-01-11T11:39:07.406Z,1.45
2024-01-11T11:41:40.218Z,1.75
2024-01-11T11:44:15.293Z,2.63
2024-01-11T11:49:15.567Z,1.52
2024-01-11T11:51:45.933Z,1.40
2024-01-11T11:54:16.649Z,1.35
2024-01-11T11:56:46.757Z,1.65
2024-01-11T11:59:17.526Z,2.03
2024-01-11T12:01:47.583Z,1.33
2024-01-11T12:04:18.040Z,1.83
2024-01-11T12:06:47.849Z,2.72
2024-01-11T12:09:22.599Z,1.88
2024-01-11T12:11:58.458Z,1.92
2024-01-11T12:14:38.973Z,0.60
2024-01-11T12:17:09.030Z,1.77
2024-01-11T12:19:39.788Z,1.05
2024-01-11T12:22:09.669Z,1.73
2024-01-11T12:24:39.172Z,1.98
2024-01-11T12:27:08.564Z,2.47
2024-01-11T12:29:48.658Z,1.15
2024-01-11T12:32:25.967Z,1.65
2024-01-11T12:34:55.814Z,1.50
2024-01-11T12:37:25.258Z,1.60
2024-01-11T12:40:00.634Z,1.00
2024-01-11T12:42:30.521Z,1.65
2024-01-11T12:45:02.062Z,1.70
2024-01-11T12:47:32.018Z,2.15
2024-01-11T12:50:01.824Z,1.10
2024-01-11T12:52:31.782Z,2.05
2024-01-11T12:55:01.405Z,1.92
2024-01-11T12:57:31.101Z,1.27
2024-01-11T13:00:14.744Z,2.20
2024-01-11T13:02:46.316Z,1.63
2024-01-11T13:05:17.359Z,1.08
2024-01-11T13:07:47.889Z,0.95
2024-01-11T13:10:18.323Z,1.35
2024-01-11T13:12:51.509Z,1.73
2024-01-11T13:15:28.671Z,1.52
2024-01-11T13:17:58.761Z,1.25
2024-01-11T13:20:29.790Z,1.70
2024-01-11T13:23:15.588Z,1.15
2024-01-11T13:25:46.320Z,0.95
2024-01-11T13:28:16.842Z,2.35
2024-01-11T13:30:50.449Z,2.22
2024-01-11T13:33:20.797Z,1.45
2024-01-11T13:35:52.945Z,1.20
2024-01-11T13:38:25.150Z,1.17
2024-01-11T13:40:55.221Z,1.33
2024-01-11T13:43:25.143Z,2.33
2024-01-11T13:45:57.019Z,1.48
2024-01-11T13:48:26.954Z,2.58
2024-01-11T13:50:57.244Z,2.60
2024-01-11T13:53:26.988Z,1.98
2024-01-11T13:55:56.783Z,1.15
2024-01-11T13:58:26.225Z,1.75
2024-01-11T14:00:58.566Z,0.82
2024-01-11T14:03:28.036Z,2.60
2024-01-11T14:05:57.589Z,1.92
2024-01-11T14:08:27.851Z,1.65
2024-01-11T14:10:57.623Z,2.58
2024-01-11T14:13:26.984Z,1.50
2024-01-11T14:15:58.642Z,1.42
2024-01-11T14:18:28.660Z,1.23
2024-01-11T14:20:58.334Z,1.55
2024-01-11T14:23:27.905Z,0.80
2024-01-11T14:25:58.202Z,1.33
2024-01-11T14:28:27.915Z,1.77
2024-01-11T14:30:59.778Z,1.98
2024-01-11T14:33:30.334Z,2.90
2024-01-11T14:35:59.922Z,1.27
2024-01-11T14:38:29.522Z,1.45
2024-01-11T14:40:59.314Z,3.03
2024-01-11T14:43:29.126Z,2.97
2024-01-11T14:45:59.968Z,1.58
2024-01-11T14:48:32.620Z,1.67
2024-01-11T14:51:02.306Z,1.13
2024-01-11T14:53:31.684Z,1.80
2024-01-11T14:56:00.999Z,1.90
2024-01-11T14:58:30.243Z,1.50
2024-01-11T15:01:01.166Z,2.45
2024-01-11T15:03:30.497Z,4.18
2024-01-11T15:05:59.868Z,3.13
2024-01-11T15:08:29.622Z,2.00
2024-01-11T15:10:58.883Z,3.67
2024-01-11T15:13:30.061Z,2.80
2024-01-11T15:16:01.017Z,3.60
2024-01-11T15:18:30.609Z,4.18
2024-01-11T15:20:59.979Z,7.30
2024-01-11T15:23:30.908Z,6.43
2024-01-11T15:26:00.940Z,5.25
2024-01-11T15:28:30.375Z,5.30
2024-01-11T15:31:01.281Z,3.72
2024-01-11T15:33:30.574Z,4.47
2024-01-11T15:36:00.708Z,6.22
2024-01-11T15:38:30.213Z,2.20
2024-01-11T15:40:59.845Z,2.88
2024-01-11T15:43:30.101Z,8.60
2024-01-11T15:46:01.258Z,2.58
2024-01-11T15:48:31.039Z,2.80
2024-01-11T15:51:02.143Z,3.70
2024-01-11T15:53:32.050Z,7.07
2024-01-11T15:56:02.194Z,8.13
2024-01-11T15:58:31.555Z,13.35
2024-01-11T16:01:02.744Z,15.45
2024-01-11T16:03:32.360Z,12.57
2024-01-11T16:06:02.319Z,14.23
2024-01-11T16:08:32.239Z,10.85
2024-01-11T16:11:01.965Z,9.60
2024-01-11T16:13:31.290Z,9.10
2024-01-11T16:16:02.486Z,12.65
2024-01-11T16:18:36.955Z,13.55
2024-01-11T16:21:07.088Z,12.32
2024-01-11T16:23:37.679Z,11.55
2024-01-11T16:26:08.842Z,15.70
2024-01-11T16:28:38.720Z,17.88
2024-01-11T16:31:09.924Z,16.92
2024-01-11T16:33:40.105Z,19.30
2024-01-11T16:36:10.258Z,18.65
2024-01-11T16:38:40.383Z,22.67
2024-01-11T16:41:11.525Z,21.83
2024-01-11T16:43:41.498Z,19.85
2024-01-11T16:46:22.168Z,25.85
2024-01-11T16:48:52.614Z,23.27
2024-01-11T16:51:22.041Z,25.50
2024-01-11T16:53:51.676Z,13.43
2024-01-11T16:56:21.245Z,15.65
2024-01-11T16:58:50.936Z,11.40
2024-01-11T17:01:22.075Z,16.50
2024-01-11T17:03:51.571Z,14.27
2024-01-11T17:06:21.288Z,12.80
2024-01-11T17:08:51.313Z,14.60
2024-01-11T17:11:21.137Z,24.40
2024-01-11T17:13:50.844Z,14.75
2024-01-11T17:16:22.378Z,11.82
2024-01-11T17:18:51.724Z,12.13
2024-01-11T17:21:21.317Z,10.07
2024-01-11T17:23:51.019Z,9.80
2024-01-11T17:26:20.547Z,7.75
2024-01-11T17:28:50.257Z,8.88
2024-01-11T17:31:19.517Z,12.45
2024-01-11T17:33:50.594Z,12.30
2024-01-11T17:36:20.276Z,16.08
2024-01-11T17:38:49.848Z,11.65
2024-01-11T17:41:19.638Z,7.32
2024-01-11T17:43:49.937Z,10.50
2024-01-11T17:46:27.956Z,13.40
2024-01-11T17:49:00.129Z,9.75
2024-01-11T17:51:30.436Z,11.45
2024-01-11T17:53:59.699Z,14.05
2024-01-11T17:56:29.502Z,9.90
2024-01-11T17:59:06.579Z,6.57
2024-01-11T18:01:36.265Z,11.32
2024-01-11T18:04:10.362Z,9.40
2024-01-11T18:06:41.282Z,8.20
2024-01-11T18:09:10.817Z,7.93
2024-01-11T18:11:40.332Z,5.88
2024-01-11T18:14:10.124Z,9.32
2024-01-11T18:16:39.701Z,5.72
2024-01-11T18:19:14.985Z,5.13
2024-01-11T18:21:45.044Z,6.30
2024-01-11T18:24:15.495Z,6.65
2024-01-11T18:26:45.020Z,6.93
2024-01-11T18:29:14.900Z,10.35
2024-01-11T18:31:44.570Z,9.50
2024-01-11T18:34:15.827Z,6.70
2024-01-11T18:36:47.119Z,11.70
2024-01-11T18:39:17.116Z,12.32
2024-01-11T18:41:47.140Z,12.80
2024-01-11T18:44:17.019Z,13.35
2024-01-11T18:46:46.386Z,10.88
2024-01-11T18:49:18.141Z,9.50
2024-01-11T18:51:47.988Z,9.95
2024-01-11T18:54:17.563Z,7.47
2024-01-11T18:56:47.821Z,11.77
2024-01-11T18:59:18.265Z,9.45
2024-01-11T19:01:49.808Z,10.40
2024-01-11T19:04:21.351Z,9.00
2024-01-11T19:06:51.595Z,6.35
2024-01-11T19:09:20.992Z,7.25
2024-01-11T19:11:51.811Z,12.45
2024-01-11T19:14:21.364Z,17.70
2024-01-11T19:16:50.459Z,17.45
2024-01-11T19:19:22.642Z,9.18
2024-01-11T19:21:52.465Z,6.82
2024-01-11T19:24:22.177Z,9.93
2024-01-11T19:26:52.319Z,10.75
2024-01-11T19:29:25.671Z,12.60
2024-01-11T19:31:55.349Z,7.78
2024-01-11T19:34:26.127Z,13.23
2024-01-11T19:36:55.474Z,11.15
2024-01-11T19:39:24.879Z,11.77
2024-01-11T19:41:54.832Z,10.50
2024-01-11T19:44:28.491Z,5.35
2024-01-11T19:46:57.891Z,4.18
2024-01-11T19:49:28.904Z,7.85
2024-01-11T19:51:58.115Z,4.97
2024-01-11T19:54:28.020Z,9.45
2024-01-11T19:56:57.288Z,4.97
2024-01-11T19:59:29.277Z,4.13
2024-01-11T20:01:59.286Z,8.82
2024-01-11T20:04:33.551Z,6.13
2024-01-11T20:07:03.766Z,7.22
2024-01-11T20:09:33.647Z,9.93
2024-01-11T20:12:03.716Z,6.15
2024-01-11T20:14:33.656Z,11.50
2024-01-11T20:17:09.469Z,10.18
2024-01-11T20:19:40.766Z,12.93
2024-01-11T20:22:10.819Z,10.63
2024-01-11T20:24:40.335Z,15.27
2024-01-11T20:27:10.369Z,17.10
2024-01-11T20:29:40.071Z,16.75
2024-01-11T20:32:09.481Z,11.02
2024-01-11T20:34:41.114Z,16.23
2024-01-11T20:37:10.623Z,21.05
2024-01-11T20:39:42.523Z,11.32
2024-01-11T20:42:12.049Z,11.68
2024-01-11T20:44:41.473Z,12.75
2024-01-11T20:47:10.751Z,7.88
2024-01-11T20:49:41.993Z,6.15
2024-01-11T20:52:11.312Z,6.13
2024-01-11T20:54:40.539Z,8.32
2024-01-11T20:57:11.505Z,8.30
2024-01-11T20:59:42.034Z,10.35
2024-01-11T21:02:11.652Z,10.90
2024-01-11T21:04:42.761Z,13.70
2024-01-11T21:07:12.236Z,9.57
2024-01-11T21:09:42.003Z,8.70
2024-01-11T21:12:12.016Z,8.35
2024-01-11T21:14:41.752Z,6.97
2024-01-11T21:17:11.229Z,5.97
2024-01-11T21:19:42.454Z,3.83
2024-01-11T21:22:12.178Z,4.63
2024-01-11T21:24:42.012Z,9.63
2024-01-11T21:27:11.553Z,7.75
2024-01-11T21:29:41.339Z,6.30
2024-01-11T21:32:11.141Z,6.75
2024-01-11T21:34:42.246Z,5.10
2024-01-11T21:37:11.746Z,10.32
2024-01-11T21:39:41.230Z,7.05
2024-01-11T21:42:10.671Z,6.55
2024-01-11T21:44:40.190Z,6.30
2024-01-11T21:47:09.321Z,3.53
2024-01-11T21:49:38.493Z,6.13
2024-01-11T21:52:09.625Z,6.40
2024-01-11T21:54:38.829Z,5.05
2024-01-11T21:57:08.675Z,9.00
2024-01-11T21:59:38.268Z,9.88
2024-01-11T22:02:08.411Z,5.68
2024-01-11T22:04:37.917Z,8.40
2024-01-11T22:07:11.441Z,3.92
2024-01-11T22:09:43.938Z,14.05
2024-01-11T22:12:13.384Z,1.65
2024-01-11T22:14:42.860Z,4.82
2024-01-11T22:17:12.154Z,4.78
2024-01-11T22:19:41.366Z,4.68
2024-01-11T22:22:12.475Z,5.32
2024-01-11T22:24:41.830Z,2.15
2024-01-11T22:27:12.604Z,4.60
2024-01-11T22:29:42.245Z,5.93
2024-01-11T22:32:11.496Z,4.95
2024-01-11T22:34:40.976Z,3.35
2024-01-11T22:37:12.082Z,1.65
2024-01-11T22:39:41.773Z,5.05
2024-01-11T22:42:11.129Z,5.57
2024-01-11T22:44:40.514Z,8.35
2024-01-11T22:47:09.863Z,8.57
2024-01-11T22:49:39.389Z,7.72
2024-01-11T22:52:09.259Z,10.38
2024-01-11T22:54:41.950Z,7.18
2024-01-11T22:57:11.315Z,7.57
2024-01-11T22:59:40.693Z,6.13
2024-01-11T23:02:09.973Z,5.18
2024-01-11T23:04:39.500Z,4.43
2024-01-11T23:07:08.628Z,6.90
2024-01-11T23:09:39.573Z,4.90
2024-01-11T23:12:09.290Z,3.55
2024-01-11T23:14:38.351Z,4.25
2024-01-11T23:17:08.814Z,4.13
2024-01-11T23:19:38.196Z,9.35
2024-01-11T23:22:07.287Z,4.75
2024-01-11T23:24:36.525Z,2.45
2024-01-11T23:27:09.721Z,3.95
2024-01-11T23:29:39.478Z,3.67
2024-01-11T23:32:08.706Z,3.83
2024-01-11T23:34:38.141Z,2.13
2024-01-11T23:37:07.631Z,5.07
2024-01-11T23:39:36.720Z,3.67
2024-01-11T23:42:09.449Z,3.65
2024-01-11T23:44:38.829Z,6.93
2024-01-11T23:47:08.407Z,5.50
2024-01-11T23:49:37.983Z,2.42
2024-01-11T23:52:08.107Z,3.00
2024-01-11T23:54:37.302Z,6.95
2024-01-11T23:57:08.426Z,4.85
2024-01-11T23:59:37.844Z,4.60
